Meteorológiai információk azoknak akik tudják olvasni.

METAR = LHBP 050800Z 03007KT 350V060 9999 FEW040CB SCT055 BKN100 21/17 Q1004 TEMPO 4000 TSRA

9 órás TAF = TAF TAF LHBP 242330Z 2423/2424 30008KT CAVOK BECMG 2506/2509 24010KT OVC030 TEMPO 2509/2515 24015G25KT 8000 -RA BKN013 OVC025 BECMG 2515/2518 30008KT CAVOK

24 órás TAF = TAF TAF LHBP 050515Z 0506/0606 06009KT 9999 BKN045 TEMPO 0506/0515 21015G28KT TSRA SHRA FEW045CB BKN060 BECMG 0515/0517 28015KT BKN023 BKN090

ÁLLOMÁS.................... LHBP
ÉSZLELÉS................... Thu Aug 5, 10:00 CEST
MOST....................... Thu Aug 5, 10:20 CEST
IDŐ........................ 20 perccel ezelőtt
SZÉL....................... ÉÉK irányból 7 csomó
LÁTÁSTÁVOLSÁG.............. 6 mérföld
FELHŐZET................... erősen felhős
HŐMÉRSÉKLET................ 70°F (21°C)
HARMATPONT................. 63°F (17°C)
PÁRATARTALOM............... 78%
LÉGNYOMÁS.................. 1004 hPa (29.65 in Hg)

További információ LHBP állomásról

Meteor információ kérése:        állomásról.    

 

www.tothgeza.hu

 

English version
Copyright © 2003-2021 Tóth Géza Minden jog fenntartva.